Faust, Utah
Current Conditions -  °F | °C
As of 3:50 PM on Thursday 27 Nov 2014 (Local Time) from KPVU Reporting Station
Overcast Overcast  
Wind Chill: 41°   Ceiling: 13000
Heat Index: 41°   Visibility: 15mi
Dew Point: 30°   Wind: 3mph
Humidity: 65%   Direction: NA
Pressure: 30.25"   Gusts: NA
Location:  40.0384°N, 112.37°W
Report Text: KPVU 272250Z VRB03KT 15SM OVC130 05/M01 A3025
Loading
Personal Weather Stations






























Interactive Weather Map New forecast layout! Learn more

10-Day Weather Forecast

Advertisements
Track Severe Weather on mobile